sensor_id;sensor_type;location;lat;lon;timestamp;pressure;altitude;pressure_sealevel;temperature;humidity
55994;BME280;67425;52.126;20.638;2023-07-16T18:37:25;57424.97;;;-144.78;53.71
55994;BME280;67425;52.126;20.638;2023-07-16T18:39:51;57429.13;;;-144.78;54.56
55994;BME280;67425;52.126;20.638;2023-07-16T18:42:18;57429.13;;;-144.78;56.02
55994;BME280;67425;52.126;20.638;2023-07-16T18:44:44;57449.88;;;-144.78;53.21
55994;BME280;67425;52.126;20.638;2023-07-16T18:47:09;57447.81;;;-144.78;52.51
55994;BME280;67425;52.126;20.638;2023-07-16T18:49:34;57437.44;;;-144.78;52.48
55994;BME280;67425;52.126;20.638;2023-07-16T18:52:00;57431.19;;;-144.78;52.41
55994;BME280;67425;52.126;20.638;2023-07-16T18:54:25;57437.44;;;-144.78;52.38
55994;BME280;67425;52.126;20.638;2023-07-16T18:56:51;57433.28;;;-144.78;52.66
55994;BME280;67425;52.126;20.638;2023-07-16T18:59:16;57447.81;;;-144.78;53.55
55994;BME280;67425;52.126;20.638;2023-07-16T19:01:41;57416.66;;;-144.78;55.22
55994;BME280;67425;52.126;20.638;2023-07-16T19:04:07;57416.66;;;-144.78;55.22
55994;BME280;67425;52.126;20.638;2023-07-16T19:06:33;57424.97;;;-144.78;54.19
55994;BME280;67425;52.126;20.638;2023-07-16T19:08:59;57418.72;;;-144.78;56.28
55994;BME280;67425;52.126;20.638;2023-07-16T19:11:24;57400.03;;;-144.78;56.28
55994;BME280;67425;52.126;20.638;2023-07-16T19:13:51;57439.50;;;-144.78;57.19
55994;BME280;67425;52.126;20.638;2023-07-16T19:16:16;57460.28;;;-144.78;57.83
55994;BME280;67425;52.126;20.638;2023-07-16T19:18:42;57451.97;;;-144.78;58.88
55994;BME280;67425;52.126;20.638;2023-07-16T19:21:07;57439.50;;;-144.78;59.56
55994;BME280;67425;52.126;20.638;2023-07-16T19:23:32;57437.44;;;-144.78;59.70
55994;BME280;67425;52.126;20.638;2023-07-16T19:25:58;57447.81;;;-144.78;61.74
55994;BME280;67425;52.126;20.638;2023-07-16T19:28:23;57451.97;;;-144.78;60.94
55994;BME280;67425;52.126;20.638;2023-07-16T19:30:48;57458.19;;;-144.78;61.47
55994;BME280;67425;52.126;20.638;2023-07-16T19:33:14;57443.66;;;-144.78;62.97
55994;BME280;67425;52.126;20.638;2023-07-16T19:35:40;57456.13;;;-144.78;63.62
55994;BME280;67425;52.126;20.638;2023-07-16T19:38:05;57462.34;;;-144.78;65.30
55994;BME280;67425;52.126;20.638;2023-07-16T19:40:31;57456.13;;;-144.78;65.09
55994;BME280;67425;52.126;20.638;2023-07-16T19:42:57;57472.72;;;-144.78;64.94
55994;BME280;67425;52.126;20.638;2023-07-16T19:45:23;57474.81;;;-144.78;65.60
55994;BME280;67425;52.126;20.638;2023-07-16T19:47:49;57472.72;;;-144.78;65.90
55994;BME280;67425;52.126;20.638;2023-07-16T19:50:14;57510.13;;;-144.78;66.68
55994;BME280;67425;52.126;20.638;2023-07-16T19:52:39;57474.81;;;-144.78;68.55
55994;BME280;67425;52.126;20.638;2023-07-16T19:55:05;57464.41;;;-144.78;68.84
55994;BME280;67425;52.126;20.638;2023-07-16T19:57:31;57462.34;;;-144.78;68.39
55994;BME280;67425;52.126;20.638;2023-07-16T20:00:00;57447.81;;;-144.78;67.79
55994;BME280;67425;52.126;20.638;2023-07-16T20:02:27;57476.88;;;-144.78;67.00
55994;BME280;67425;52.126;20.638;2023-07-16T20:04:52;57464.41;;;-144.78;68.16
55994;BME280;67425;52.126;20.638;2023-07-16T20:07:17;57483.13;;;-144.78;68.07
55994;BME280;67425;52.126;20.638;2023-07-16T20:09:43;57470.66;;;-144.78;69.99
55994;BME280;67425;52.126;20.638;2023-07-16T20:12:14;57460.28;;;-144.78;70.61
55994;BME280;67425;52.126;20.638;2023-07-16T20:14:39;57481.03;;;-144.78;69.01
55994;BME280;67425;52.126;20.638;2023-07-16T20:17:05;57431.19;;;-144.78;69.19
55994;BME280;67425;52.126;20.638;2023-07-16T20:19:31;57427.03;;;-144.78;62.64
55994;BME280;67425;52.126;20.638;2023-07-16T20:21:57;57418.72;;;-144.78;57.22
55994;BME280;67425;52.126;20.638;2023-07-16T20:24:22;57356.44;;;-144.78;51.64
55994;BME280;67425;52.126;20.638;2023-07-16T20:26:47;57379.28;;;-144.78;49.29
55994;BME280;67425;52.126;20.638;2023-07-16T20:29:13;57335.66;;;-144.78;46.31
55994;BME280;67425;52.126;20.638;2023-07-16T20:31:39;57343.97;;;-144.78;48.56
55994;BME280;67425;52.126;20.638;2023-07-16T20:34:04;57310.75;;;-144.78;43.24
55994;BME280;67425;52.126;20.638;2023-07-16T20:36:29;57300.38;;;-144.78;42.17
55994;BME280;67425;52.126;20.638;2023-07-16T20:38:55;57269.22;;;-144.78;39.69
55994;BME280;67425;52.126;20.638;2023-07-16T20:41:20;57231.84;;;-144.78;38.57
55994;BME280;67425;52.126;20.638;2023-07-16T20:43:45;57219.38;;;-144.78;37.68
55994;BME280;67425;52.126;20.638;2023-07-16T20:46:11;57240.13;;;-144.78;37.97
55994;BME280;67425;52.126;20.638;2023-07-16T20:48:37;57202.75;;;-144.78;36.29
55994;BME280;67425;52.126;20.638;2023-07-16T20:51:08;57271.28;;;-144.78;38.40
55994;BME280;67425;52.126;20.638;2023-07-16T20:53:34;57281.69;;;-144.78;40.71
55994;BME280;67425;52.126;20.638;2023-07-16T20:55:59;57256.75;;;-144.78;37.96
55994;BME280;67425;52.126;20.638;2023-07-16T20:58:24;57250.53;;;-144.78;39.02
55994;BME280;67425;52.126;20.638;2023-07-16T21:00:50;57209.00;;;-144.78;37.01
55994;BME280;67425;52.126;20.638;2023-07-16T21:03:15;57252.59;;;-144.78;37.38
55994;BME280;67425;52.126;20.638;2023-07-16T21:05:40;57289.97;;;-144.78;40.07
55994;BME280;67425;52.126;20.638;2023-07-16T21:08:06;57310.75;;;-144.78;41.30
55994;BME280;67425;52.126;20.638;2023-07-16T21:10:31;57343.97;;;-144.78;44.06
55994;BME280;67425;52.126;20.638;2023-07-16T21:12:58;57389.66;;;-144.78;45.84
55994;BME280;67425;52.126;20.638;2023-07-16T21:15:27;57366.81;;;-144.78;46.75
55994;BME280;67425;52.126;20.638;2023-07-16T21:17:56;57381.34;;;-144.78;48.58
55994;BME280;67425;52.126;20.638;2023-07-16T21:20:22;57393.81;;;-144.78;50.16
55994;BME280;67425;52.126;20.638;2023-07-16T21:22:47;57410.44;;;-144.78;52.15
55994;BME280;67425;52.126;20.638;2023-07-16T21:25:12;57427.03;;;-144.78;54.76
55994;BME280;67425;52.126;20.638;2023-07-16T21:27:46;57435.34;;;-144.78;55.37
55994;BME280;67425;52.126;20.638;2023-07-16T21:30:12;57447.81;;;-144.78;57.32
55994;BME280;67425;52.126;20.638;2023-07-16T21:32:37;57481.03;;;-144.78;60.07
55994;BME280;67425;52.126;20.638;2023-07-16T21:35:03;57468.56;;;-144.78;59.86
55994;BME280;67425;52.126;20.638;2023-07-16T21:37:29;57483.13;;;-144.78;61.01
55994;BME280;67425;52.126;20.638;2023-07-16T21:39:55;57456.13;;;-144.78;62.06
55994;BME280;67425;52.126;20.638;2023-07-16T21:42:20;57474.81;;;-144.78;62.17
55994;BME280;67425;52.126;20.638;2023-07-16T21:44:46;57441.59;;;-144.78;63.65
55994;BME280;67425;52.126;20.638;2023-07-16T21:47:11;57474.81;;;-144.78;64.20
55994;BME280;67425;52.126;20.638;2023-07-16T21:49:36;57489.34;;;-144.78;65.02
55994;BME280;67425;52.126;20.638;2023-07-16T21:52:02;57458.19;;;-144.78;64.50
55994;BME280;67425;52.126;20.638;2023-07-16T21:54:34;57493.50;;;-144.78;64.83
55994;BME280;67425;52.126;20.638;2023-07-16T21:57:03;57445.72;;;-144.78;65.46
55994;BME280;67425;52.126;20.638;2023-07-16T21:59:29;57491.41;;;-144.78;66.64
55994;BME280;67425;52.126;20.638;2023-07-16T22:01:55;57458.19;;;-144.78;66.86
55994;BME280;67425;52.126;20.638;2023-07-16T22:04:21;57487.28;;;-144.78;68.84
55994;BME280;67425;52.126;20.638;2023-07-16T22:06:46;57483.13;;;-144.78;69.52
55994;BME280;67425;52.126;20.638;2023-07-16T22:09:11;57485.19;;;-144.78;70.25
55994;BME280;67425;52.126;20.638;2023-07-16T22:11:37;57481.03;;;-144.78;71.87
55994;BME280;67425;52.126;20.638;2023-07-16T22:14:03;57510.13;;;-144.78;72.74
55994;BME280;67425;52.126;20.638;2023-07-16T22:16:35;57510.13;;;-144.78;73.50
55994;BME280;67425;52.126;20.638;2023-07-16T22:19:01;57458.19;;;-144.78;76.33
55994;BME280;67425;52.126;20.638;2023-07-16T22:21:27;57501.81;;;-144.78;76.12
55994;BME280;67425;52.126;20.638;2023-07-16T22:23:53;57495.56;;;-144.78;76.36
55994;BME280;67425;52.126;20.638;2023-07-16T22:26:19;57497.66;;;-144.78;76.16
55994;BME280;67425;52.126;20.638;2023-07-16T22:28:44;57514.25;;;-144.78;78.45
55994;BME280;67425;52.126;20.638;2023-07-16T22:31:10;57497.66;;;-144.78;78.84
55994;BME280;67425;52.126;20.638;2023-07-16T22:33:35;57485.19;;;-144.78;78.64
55994;BME280;67425;52.126;20.638;2023-07-16T22:36:03;57516.34;;;-144.78;79.94
55994;BME280;67425;52.126;20.638;2023-07-16T22:38:29;57516.34;;;-144.78;80.01
55994;BME280;67425;52.126;20.638;2023-07-16T22:40:54;57481.03;;;-144.78;80.10
55994;BME280;67425;52.126;20.638;2023-07-16T22:43:20;57535.03;;;-144.78;81.99
55994;BME280;67425;52.126;20.638;2023-07-16T22:45:46;57505.97;;;-144.78;81.60
55994;BME280;67425;52.126;20.638;2023-07-16T22:48:11;57522.56;;;-144.78;83.72
55994;BME280;67425;52.126;20.638;2023-07-16T22:50:37;57493.50;;;-144.78;83.92
55994;BME280;67425;52.126;20.638;2023-07-16T22:53:02;57464.41;;;-144.78;83.59
55994;BME280;67425;52.126;20.638;2023-07-16T22:55:29;57481.03;;;-144.78;83.32
55994;BME280;67425;52.126;20.638;2023-07-16T22:57:54;57483.13;;;-144.78;85.56
55994;BME280;67425;52.126;20.638;2023-07-16T23:00:21;57501.81;;;-144.78;85.86
55994;BME280;67425;52.126;20.638;2023-07-16T23:02:47;57495.56;;;-144.78;84.98
55994;BME280;67425;52.126;20.638;2023-07-16T23:05:12;57505.97;;;-144.78;84.79
55994;BME280;67425;52.126;20.638;2023-07-16T23:07:39;57481.03;;;-144.78;85.18
55994;BME280;67425;52.126;20.638;2023-07-16T23:10:07;57495.56;;;-144.78;84.92
55994;BME280;67425;52.126;20.638;2023-07-16T23:12:32;57518.41;;;-144.78;85.21
55994;BME280;67425;52.126;20.638;2023-07-16T23:14:57;57491.41;;;-144.78;85.23
55994;BME280;67425;52.126;20.638;2023-07-16T23:17:23;57483.13;;;-144.78;85.70
55994;BME280;67425;52.126;20.638;2023-07-16T23:19:48;57516.34;;;-144.78;85.39
55994;BME280;67425;52.126;20.638;2023-07-16T23:22:13;57518.41;;;-144.78;85.72
55994;BME280;67425;52.126;20.638;2023-07-16T23:24:39;57530.88;;;-144.78;86.27
55994;BME280;67425;52.126;20.638;2023-07-16T23:27:04;57495.56;;;-144.78;91.32
55994;BME280;67425;52.126;20.638;2023-07-16T23:29:30;57505.97;;;-144.78;93.34
55994;BME280;67425;52.126;20.638;2023-07-16T23:31:55;57501.81;;;-144.78;93.23
55994;BME280;67425;52.126;20.638;2023-07-16T23:34:20;57516.34;;;-144.78;96.98
55994;BME280;67425;52.126;20.638;2023-07-16T23:36:46;57520.50;;;-144.78;97.61
55994;BME280;67425;52.126;20.638;2023-07-16T23:39:11;57520.50;;;-144.78;99.38
55994;BME280;67425;52.126;20.638;2023-07-16T23:41:36;57522.56;;;-144.78;100.00
55994;BME280;67425;52.126;20.638;2023-07-16T23:44:02;57505.97;;;-144.78;100.00
55994;BME280;67425;52.126;20.638;2023-07-16T23:46:28;57539.19;;;-144.78;100.00
55994;BME280;67425;52.126;20.638;2023-07-16T23:48:53;57535.03;;;-144.78;100.00
55994;BME280;67425;52.126;20.638;2023-07-16T23:51:19;57510.13;;;-144.78;100.00
55994;BME280;67425;52.126;20.638;2023-07-16T23:53:44;57514.25;;;-144.78;100.00
55994;BME280;67425;52.126;20.638;2023-07-16T23:56:09;57512.19;;;-144.78;100.00
55994;BME280;67425;52.126;20.638;2023-07-16T23:58:34;57520.50;;;-144.78;100.00
